Otago Bay — VRQK3 — position and weather

sailwx.info

Track history (hours):
 
Tides and Currents Weather Stations Pressure Air Temp Water Temp Dewpoint Dewpoint Depression Visibility Wind Speed Wind Dir Waves Ship Positions

Otago Bay

Last reported at 2018-Feb-14 08:35 UTC. Time now 2018-Feb-18 20:21 UTC.
Position N 41°19' E 140°14'.

Length 190 m; draft 10.8 m.

Type: Cargo ship. MMSI: 477023600.

Date/timePositionNaut miles runAvg speedWind from/ knotsBaromVisibWave heightAir tempDewpointWater temp
2018-Feb-14 08:35N 41°19' E 140°14'110.8
2018-Feb-14 08:30N 41°20' E 140°15'610.5
2018-Feb-14 07:59N 41°23' E 140°21'511.1
2018-Feb-14 07:30N 41°26' E 140°26'510.9
2018-Feb-14 07:01N 41°28' E 140°33'510.6
2018-Feb-14 06:30N 41°31' E 140°39'510.5
2018-Feb-14 06:00N 41°34' E 140°45'510.2
2018-Feb-14 05:30N 41°38' E 140°50'5 9.2
2018-Feb-14 05:00N 41°39' E 140°56'510.4
2018-Feb-14 04:30N 41°39' E 141°03'510.2
2018-Feb-14 04:01N 41°38' E 141°09'510.3
2018-Feb-14 03:30N 41°38' E 141°16'5 9.7
2018-Feb-14 03:00N 41°38' E 141°23'5 9.2
2018-Feb-14 02:29N 41°38' E 141°29'  
2018-Feb-06 01:00N 54°42' W 175°00'   140 / 14993.010.8 6.0 1.0 4.0
Track history (hours):
 
Tides and Currents Weather Stations Pressure Air Temp Water Temp Dewpoint Dewpoint Depression Visibility Wind Speed Wind Dir Waves Ship Positions

Otago Bay

Last reported at 2018-Feb-14 08:35 UTC. Time now 2018-Feb-18 20:21 UTC.
Position N 41°19' E 140°14'.

Length 190 m; draft 10.8 m.

Type: Cargo ship. MMSI: 477023600.

Date/timePositionNaut miles runAvg speedWind from/ knotsBaromVisibWave heightAir tempDewpointWater temp
2018-Feb-14 08:35N 41°19' E 140°14'110.8
2018-Feb-14 08:30N 41°20' E 140°15'610.5
2018-Feb-14 07:59N 41°23' E 140°21'511.1
2018-Feb-14 07:30N 41°26' E 140°26'510.9
2018-Feb-14 07:01N 41°28' E 140°33'510.6
2018-Feb-14 06:30N 41°31' E 140°39'510.5
2018-Feb-14 06:00N 41°34' E 140°45'510.2
2018-Feb-14 05:30N 41°38' E 140°50'5 9.2
2018-Feb-14 05:00N 41°39' E 140°56'510.4
2018-Feb-14 04:30N 41°39' E 141°03'510.2
2018-Feb-14 04:01N 41°38' E 141°09'510.3
2018-Feb-14 03:30N 41°38' E 141°16'5 9.7
2018-Feb-14 03:00N 41°38' E 141°23'5 9.2
2018-Feb-14 02:29N 41°38' E 141°29'  
2018-Feb-06 01:00N 54°42' W 175°00'   140 / 14993.010.8 6.0 1.0 4.0

Dump ship's entire track history